Time;durP1;ratioP1;P1;durP2;ratioP2;P2;SDS_P1;SDS_P2;PMS_P1;PMS_P2;Temp;Humidity;BMP_temperature;BMP_pressure;BME280_temperature;BME280_humidity;BME280_pressure;Samples;Min_cycle;Max_cycle;Signal;HPM_P1;HPM_P2
2022/03/27 00:03:36;;;;;;;16;22.1;;;;;;;7.4;71.5;99980;;;;
2022/03/27 00:14:35;;;;;;;16;22.1;;;;;;;7.4;68.2;99970;;;;
2022/03/27 00:24:36;;;;;;;14;18.5;;;;;;;7.2;67.2;99980;;;;
2022/03/27 00:34:36;;;;;;;14;18.5;;;;;;;7.1;66.7;100000;;;;
2022/03/27 00:45:35;;;;;;;14;18.5;;;;;;;6.4;51.8;100020;;;;
2022/03/27 00:56:35;;;;;;;7.8;12.6;;;;;;;5.6;46.8;100040;;;;
2022/03/27 01:07:35;;;;;;;7.8;12.6;;;;;;;5;49.2;100050;;;;
2022/03/27 01:18:35;;;;;;;7.8;12.6;;;;;;;4.5;51.9;100060;;;;
2022/03/27 01:28:36;;;;;;;6.9;12.8;;;;;;;4;53.3;100060;;;;
2022/03/27 01:39:36;;;;;;;6.9;12.8;;;;;;;3.7;54.1;100070;;;;
2022/03/27 01:50:36;;;;;;;6.9;12.8;;;;;;;3.1;55.7;100090;;;;
2022/03/27 02:01:36;;;;;;;4.4;9.2;;;;;;;2.6;59;100090;;;;
2022/03/27 02:11:36;;;;;;;4.4;9.2;;;;;;;2.4;59.7;100100;;;;
2022/03/27 02:21:36;;;;;;;4.1;7;;;;;;;1.9;60.7;100110;;;;
2022/03/27 02:32:36;;;;;;;4.1;7;;;;;;;1.5;62.1;100120;;;;
2022/03/27 02:42:36;;;;;;;4.1;7;;;;;;;1.3;63.3;100120;;;;
2022/03/27 02:53:36;;;;;;;3;6;;;;;;;1.1;63.3;100130;;;;
2022/03/27 03:04:36;;;;;;;3;6;;;;;;;0.7;64;100130;;;;
2022/03/27 03:15:36;;;;;;;3;6;;;;;;;0.6;64.5;100130;;;;
2022/03/27 03:25:36;;;;;;;3.2;8.3;;;;;;;0.4;65.2;100140;;;;
2022/03/27 03:35:36;;;;;;;3.2;8.3;;;;;;;0.2;65.6;100130;;;;
2022/03/27 03:45:36;;;;;;;3.2;8.3;;;;;;;0;66.1;100140;;;;
2022/03/27 03:55:36;;;;;;;2.7;5.2;;;;;;;-0.1;66.6;100150;;;;
2022/03/27 04:05:36;;;;;;;2.7;5.2;;;;;;;-0.2;66.6;100170;;;;
2022/03/27 04:15:37;;;;;;;2.7;5.2;;;;;;;-0.2;67.1;100180;;;;
2022/03/27 04:26:36;;;;;;;2.4;5.8;;;;;;;-0.3;67;100190;;;;
2022/03/27 04:37:36;;;;;;;2.4;5.8;;;;;;;-0.5;67.6;100200;;;;
2022/03/27 04:48:36;;;;;;;2.4;5.8;;;;;;;-0.6;68.1;100210;;;;
2022/03/27 04:58:36;;;;;;;2.2;4.9;;;;;;;-0.6;68.2;100220;;;;
2022/03/27 05:08:36;;;;;;;2.2;4.9;;;;;;;-0.6;68.8;100220;;;;
2022/03/27 05:18:36;;;;;;;2.2;4.9;;;;;;;-0.3;68.6;100220;;;;
2022/03/27 05:29:36;;;;;;;3;6.1;;;;;;;0;68.9;100240;;;;
2022/03/27 05:40:36;;;;;;;3;6.1;;;;;;;0.5;68.2;100250;;;;
2022/03/27 05:50:36;;;;;;;3.2;6.6;;;;;;;1.1;67.1;100260;;;;
2022/03/27 06:01:36;;;;;;;3.2;6.6;;;;;;;1.7;64.2;100280;;;;
2022/03/27 06:12:36;;;;;;;3.2;6.6;;;;;;;2.3;63.4;100300;;;;
2022/03/27 06:22:36;;;;;;;4.5;8.1;;;;;;;2.8;61.3;100300;;;;
2022/03/27 06:32:36;;;;;;;4.5;8.1;;;;;;;3.3;58.4;100300;;;;
2022/03/27 06:43:36;;;;;;;4.5;8.1;;;;;;;3.8;58.5;100300;;;;
2022/03/27 06:53:36;;;;;;;4.9;10.6;;;;;;;4.3;56.1;100310;;;;
2022/03/27 07:04:36;;;;;;;4.9;10.6;;;;;;;4.8;53.8;100320;;;;
2022/03/27 07:14:36;;;;;;;4.9;10.6;;;;;;;5.1;52.1;100330;;;;
2022/03/27 07:24:36;;;;;;;4.1;9;;;;;;;5.4;50.8;100340;;;;
2022/03/27 07:35:36;;;;;;;4.1;9;;;;;;;5.7;48.2;100350;;;;
2022/03/27 07:46:36;;;;;;;4.1;9;;;;;;;5.8;41;100370;;;;
2022/03/27 07:57:36;;;;;;;2.7;5.1;;;;;;;5.7;43.2;100370;;;;
2022/03/27 08:07:36;;;;;;;2.7;5.1;;;;;;;6;41.8;100370;;;;
2022/03/27 08:17:36;;;;;;;2.7;5.1;;;;;;;6.6;39.1;100380;;;;
2022/03/27 08:27:36;;;;;;;1.5;3;;;;;;;6.6;39;100370;;;;
2022/03/27 08:37:36;;;;;;;1.5;3;;;;;;;7;38.5;100370;;;;
2022/03/27 08:48:36;;;;;;;1.5;3;;;;;;;7.3;36.2;100360;;;;
2022/03/27 08:58:36;;;;;;;1.5;3.3;;;;;;;7.4;37.4;100350;;;;
2022/03/27 09:09:36;;;;;;;1.5;3.3;;;;;;;7.5;34.5;100340;;;;
2022/03/27 09:20:36;;;;;;;1.3;3.3;;;;;;;7.8;32;100330;;;;
2022/03/27 09:31:36;;;;;;;1.3;3.3;;;;;;;7.6;32.9;100320;;;;
2022/03/27 09:42:37;;;;;;;1.3;3.3;;;;;;;7.8;32.6;100310;;;;
2022/03/27 09:52:37;;;;;;;2.4;4.3;;;;;;;8.6;32.5;100310;;;;
2022/03/27 10:02:36;;;;;;;2.4;4.3;;;;;;;8.6;31.4;100310;;;;
2022/03/27 10:13:36;;;;;;;2.4;4.3;;;;;;;8.6;30.5;100300;;;;
2022/03/27 10:24:36;;;;;;;0.9;2.8;;;;;;;9;28.2;100290;;;;
2022/03/27 10:34:36;;;;;;;0.9;2.8;;;;;;;9.4;28.1;100290;;;;
2022/03/27 10:44:37;;;;;;;0.9;2.8;;;;;;;9.4;27.5;100280;;;;
2022/03/27 10:55:36;;;;;;;1.1;3.2;;;;;;;9.9;28;100270;;;;
2022/03/27 11:06:36;;;;;;;1.1;3.2;;;;;;;9.3;26.4;100250;;;;
2022/03/27 11:17:36;;;;;;;1.1;3.2;;;;;;;9.3;26.6;100240;;;;
2022/03/27 11:28:36;;;;;;;1.2;3;;;;;;;9.5;29.2;100220;;;;
2022/03/27 11:38:36;;;;;;;1.2;3;;;;;;;9.3;27.1;100210;;;;
2022/03/27 11:49:36;;;;;;;1;3.2;;;;;;;10.4;30.5;100180;;;;
2022/03/27 12:00:36;;;;;;;1;3.2;;;;;;;10.6;26.8;100170;;;;
2022/03/27 12:11:36;;;;;;;1;3.2;;;;;;;10;25.5;100160;;;;
2022/03/27 12:21:36;;;;;;;1.5;4.7;;;;;;;10.4;27.4;100150;;;;
2022/03/27 12:31:36;;;;;;;1.5;4.7;;;;;;;10.9;25.9;100140;;;;
2022/03/27 12:41:36;;;;;;;1.5;4.7;;;;;;;11;27.3;100120;;;;
2022/03/27 12:51:36;;;;;;;1;2.6;;;;;;;11.2;26.5;100110;;;;
2022/03/27 13:01:36;;;;;;;1;2.6;;;;;;;11.2;25.1;100090;;;;
2022/03/27 13:11:36;;;;;;;1;2.6;;;;;;;11.5;25.9;100080;;;;
2022/03/27 13:22:36;;;;;;;1.3;3;;;;;;;11.6;25.9;100080;;;;
2022/03/27 13:32:36;;;;;;;1.3;3;;;;;;;11.5;25.3;100080;;;;
2022/03/27 13:43:36;;;;;;;1.3;3;;;;;;;11.8;25.3;100060;;;;
2022/03/27 13:53:36;;;;;;;1.1;2.6;;;;;;;12.2;24.5;100050;;;;
2022/03/27 14:03:36;;;;;;;1.1;2.6;;;;;;;12;24.8;100050;;;;
2022/03/27 14:13:36;;;;;;;1.1;2.6;;;;;;;12.1;26;100030;;;;
2022/03/27 14:24:36;;;;;;;2;4.4;;;;;;;12.1;25.1;100020;;;;
2022/03/27 14:34:36;;;;;;;2;4.4;;;;;;;12.4;25.8;100020;;;;
2022/03/27 14:44:36;;;;;;;2;4.4;;;;;;;12.4;24.7;100000;;;;
2022/03/27 15:05:36;;;;;;;1.2;4.1;;;;;;;12;25;99990;;;;
2022/03/27 15:16:36;;;;;;;1.2;4.1;;;;;;;12.5;25.3;99990;;;;
2022/03/27 15:27:36;;;;;;;3.7;5.7;;;;;;;14.7;24.1;99980;;;;
2022/03/27 15:38:36;;;;;;;3.7;5.7;;;;;;;16.2;22.2;99960;;;;
2022/03/27 15:48:36;;;;;;;3.7;5.7;;;;;;;17.4;21.1;99960;;;;
2022/03/27 15:59:36;;;;;;;2.2;5.1;;;;;;;18;20;99950;;;;
2022/03/27 16:09:38;;;;;;;2.2;5.1;;;;;;;18.4;19.7;99940;;;;
2022/03/27 16:19:36;;;;;;;2.4;4.7;;;;;;;18.7;18.8;99930;;;;
2022/03/27 16:30:36;;;;;;;2.4;4.7;;;;;;;18.3;19.6;99920;;;;
2022/03/27 16:41:36;;;;;;;2.4;4.7;;;;;;;16.8;20.5;99930;;;;
2022/03/27 16:52:36;;;;;;;1.6;4.6;;;;;;;14.3;22.5;99920;;;;
2022/03/27 17:02:37;;;;;;;1.6;4.6;;;;;;;12.1;24.1;99920;;;;
2022/03/27 17:13:36;;;;;;;1.6;4.6;;;;;;;10.4;26.3;99910;;;;
2022/03/27 17:23:36;;;;;;;4.6;8.3;;;;;;;9.3;27.5;99910;;;;
2022/03/27 17:33:36;;;;;;;4.6;8.3;;;;;;;8.1;29.9;99910;;;;
2022/03/27 17:44:37;;;;;;;4.6;8.3;;;;;;;7.1;32.7;99920;;;;
2022/03/27 17:54:36;;;;;;;13;19;;;;;;;6.3;34.1;99920;;;;
2022/03/27 18:04:36;;;;;;;13;19;;;;;;;5.7;35.5;99920;;;;
2022/03/27 18:15:36;;;;;;;13;19;;;;;;;5.2;36.5;99920;;;;
2022/03/27 18:26:36;;;;;;;63.8;77.7;;;;;;;4.8;39.2;99930;;;;
2022/03/27 18:36:37;;;;;;;63.8;77.7;;;;;;;4.4;39.3;99930;;;;
2022/03/27 18:47:36;;;;;;;63.8;77.7;;;;;;;4;40.2;99920;;;;
2022/03/27 18:57:36;;;;;;;56.1;76;;;;;;;3.7;40.7;99910;;;;
2022/03/27 19:08:37;;;;;;;56.1;76;;;;;;;3.4;41.4;99900;;;;
2022/03/27 19:19:36;;;;;;;20.9;30.8;;;;;;;3.3;42.3;99890;;;;
2022/03/27 19:29:36;;;;;;;20.9;30.8;;;;;;;3.1;42.9;99890;;;;
2022/03/27 19:39:37;;;;;;;20.9;30.8;;;;;;;2.8;43.6;99890;;;;
2022/03/27 19:49:36;;;;;;;18;26.8;;;;;;;2.5;44.4;99880;;;;
2022/03/27 20:00:36;;;;;;;18;26.8;;;;;;;2.4;46.1;99880;;;;
2022/03/27 20:10:37;;;;;;;18;26.8;;;;;;;2.1;45.2;99880;;;;
2022/03/27 20:21:36;;;;;;;26;35.6;;;;;;;1.9;46.8;99880;;;;
2022/03/27 20:32:36;;;;;;;26;35.6;;;;;;;1.7;47.5;99880;;;;
2022/03/27 20:43:36;;;;;;;26;35.6;;;;;;;1.5;48.7;99870;;;;
2022/03/27 20:54:36;;;;;;;34.9;53.8;;;;;;;1.3;49.9;99870;;;;
2022/03/27 21:05:36;;;;;;;34.9;53.8;;;;;;;1.1;50.6;99860;;;;
2022/03/27 21:15:38;;;;;;;34.9;53.8;;;;;;;0.9;51.7;99850;;;;
2022/03/27 21:26:36;;;;;;;30;40.9;;;;;;;0.6;55.1;99840;;;;
2022/03/27 21:36:36;;;;;;;30;40.9;;;;;;;0.4;55;99840;;;;
2022/03/27 21:47:36;;;;;;;30;40.9;;;;;;;0.2;54.5;99840;;;;
2022/03/27 21:57:36;;;;;;;28.8;42.6;;;;;;;0;55.5;99840;;;;
2022/03/27 22:08:36;;;;;;;28.8;42.6;;;;;;;-0.2;55.7;99830;;;;
2022/03/27 22:19:36;;;;;;;28.9;45.7;;;;;;;-0.2;57.2;99820;;;;
2022/03/27 22:29:36;;;;;;;28.9;45.7;;;;;;;-0.2;56.6;99820;;;;
2022/03/27 22:39:36;;;;;;;28.9;45.7;;;;;;;-0.4;57.8;99820;;;;
2022/03/27 22:49:36;;;;;;;20.4;33.5;;;;;;;-0.6;61;99810;;;;
2022/03/27 23:00:36;;;;;;;20.4;33.5;;;;;;;-0.6;58.5;99800;;;;
2022/03/27 23:10:36;;;;;;;20.4;33.5;;;;;;;-0.6;59.2;99800;;;;
2022/03/27 23:20:36;;;;;;;20.5;36.2;;;;;;;-0.7;58.2;99780;;;;
2022/03/27 23:31:37;;;;;;;20.5;36.2;;;;;;;-0.7;58.6;99780;;;;
2022/03/27 23:42:36;;;;;;;20.5;36.2;;;;;;;-0.8;61.3;99780;;;;
2022/03/27 23:53:36;;;;;;;18.4;34.8;;;;;;;-0.9;60.6;99760;;;;
